createdAt,value
2022-11-04T00:02:22.167Z,11.63
2022-11-04T00:04:51.321Z,12.52
2022-11-04T00:07:34.016Z,13.30
2022-11-04T00:10:03.148Z,13.93
2022-11-04T00:12:32.622Z,13.48
2022-11-04T00:15:21.791Z,13.73
2022-11-04T00:17:49.803Z,13.40
2022-11-04T00:20:50.754Z,14.40
2022-11-04T00:23:36.986Z,16.88
2022-11-04T00:26:23.147Z,16.27
2022-11-04T00:28:54.726Z,15.60
2022-11-04T00:31:40.897Z,15.45
2022-11-04T00:34:10.146Z,15.70
2022-11-04T00:36:39.244Z,14.35
2022-11-04T00:39:08.422Z,16.27
2022-11-04T00:41:37.567Z,15.77
2022-11-04T00:44:08.294Z,15.35
2022-11-04T00:46:37.501Z,14.85
2022-11-04T00:49:06.763Z,14.98
2022-11-04T00:51:35.853Z,14.05
2022-11-04T00:54:05.257Z,14.80
2022-11-04T00:56:34.561Z,14.43
2022-11-04T00:59:03.695Z,18.55
2022-11-04T01:01:34.521Z,21.15
2022-11-04T01:04:03.780Z,21.88
2022-11-04T01:06:33.036Z,22.30
2022-11-04T01:09:03.755Z,22.35
2022-11-04T01:11:33.064Z,19.73
2022-11-04T01:14:02.680Z,19.10
2022-11-04T01:16:33.817Z,20.88
2022-11-04T01:19:03.183Z,21.10
2022-11-04T01:21:32.321Z,22.52
2022-11-04T01:24:02.292Z,19.50
2022-11-04T01:26:32.226Z,19.70
2022-11-04T01:29:01.901Z,21.10
2022-11-04T01:31:33.616Z,20.20
2022-11-04T01:34:02.720Z,19.58
2022-11-04T01:36:31.953Z,19.95
2022-11-04T01:39:01.098Z,19.30
2022-11-04T01:41:32.442Z,20.05
2022-11-04T01:44:02.653Z,19.95
2022-11-04T01:46:40.909Z,19.42
2022-11-04T01:49:25.355Z,19.90
2022-11-04T01:51:58.994Z,18.63
2022-11-04T01:54:29.045Z,21.77
2022-11-04T01:57:00.169Z,23.40
2022-11-04T01:59:34.891Z,24.13
2022-11-04T02:02:06.075Z,24.77
2022-11-04T02:04:35.720Z,26.50
2022-11-04T02:07:07.539Z,24.80
2022-11-04T02:09:38.005Z,24.52
2022-11-04T02:12:24.787Z,24.02
2022-11-04T02:14:55.910Z,24.13
2022-11-04T02:17:44.197Z,22.63
2022-11-04T02:20:41.110Z,21.98
2022-11-04T02:23:32.133Z,22.15
2022-11-04T02:26:52.937Z,23.90
2022-11-04T02:29:43.013Z,23.70
2022-11-04T02:32:18.898Z,23.33
2022-11-04T02:37:33.701Z,24.05
2022-11-04T02:40:13.651Z,24.75
2022-11-04T02:42:49.656Z,23.10
2022-11-04T02:47:59.412Z,24.52
2022-11-04T02:50:35.194Z,24.92
2022-11-04T02:53:09.920Z,24.60
2022-11-04T02:55:45.103Z,28.33
2022-11-04T02:58:19.237Z,26.70
2022-11-04T03:00:53.228Z,29.20
2022-11-04T03:03:27.505Z,30.70
2022-11-04T03:05:59.369Z,30.60
2022-11-04T03:08:33.590Z,27.92
2022-11-04T03:11:06.717Z,27.35
2022-11-04T03:13:42.277Z,29.70
2022-11-04T03:16:16.416Z,32.80
2022-11-04T03:18:56.733Z,31.83
2022-11-04T03:21:28.263Z,34.53
2022-11-04T03:23:57.741Z,34.80
2022-11-04T03:26:31.663Z,37.60
2022-11-04T03:29:12.080Z,37.95
2022-11-04T03:31:49.368Z,35.55
2022-11-04T03:34:18.528Z,37.92
2022-11-04T03:36:47.850Z,41.63
2022-11-04T03:39:17.230Z,38.42
2022-11-04T03:41:52.469Z,42.47
2022-11-04T03:44:22.293Z,40.85
2022-11-04T03:46:54.557Z,41.50
2022-11-04T03:49:25.222Z,45.17
2022-11-04T03:51:55.003Z,47.55
2022-11-04T03:54:24.135Z,53.13
2022-11-04T03:57:18.840Z,55.80
2022-11-04T04:00:11.005Z,69.13
2022-11-04T04:03:09.323Z,68.03
2022-11-04T04:05:43.920Z,69.93
2022-11-04T04:08:21.651Z,74.57
2022-11-04T04:11:00.662Z,76.93
2022-11-04T04:13:44.523Z,86.15
2022-11-04T04:16:23.281Z,83.93
2022-11-04T04:19:00.040Z,76.88
2022-11-04T04:21:34.151Z,84.30
2022-11-04T04:24:25.044Z,88.15
2022-11-04T04:27:13.795Z,72.10
2022-11-04T04:29:46.319Z,56.33
2022-11-04T04:32:19.525Z,59.63
2022-11-04T04:35:28.959Z,65.43
2022-11-04T04:38:21.859Z,84.28
2022-11-04T04:41:15.013Z,85.47
2022-11-04T04:44:18.299Z,84.25
2022-11-04T04:47:14.912Z,99.90
2022-11-04T04:49:52.368Z,108.15
2022-11-04T04:52:25.275Z,100.78
2022-11-04T04:54:57.291Z,106.25
2022-11-04T04:57:27.689Z,95.45
2022-11-04T04:59:57.438Z,99.68
2022-11-04T05:02:26.926Z,98.18
2022-11-04T05:04:56.851Z,101.43
2022-11-04T05:07:30.455Z,84.07
2022-11-04T05:10:00.888Z,70.45
2022-11-04T05:12:50.865Z,71.82
2022-11-04T05:15:28.243Z,65.40
2022-11-04T05:17:59.211Z,55.97
2022-11-04T05:20:38.958Z,72.68
2022-11-04T05:23:12.711Z,60.45
2022-11-04T05:25:42.496Z,58.72
2022-11-04T05:28:12.185Z,53.78
2022-11-04T05:30:41.790Z,54.35
2022-11-04T05:33:11.517Z,59.05
2022-11-04T05:35:43.197Z,62.63
2022-11-04T05:38:13.882Z,59.75
2022-11-04T05:40:43.295Z,62.55
2022-11-04T05:43:14.540Z,62.17
2022-11-04T05:45:47.108Z,64.03
2022-11-04T05:48:19.853Z,64.05
2022-11-04T05:50:53.478Z,63.80
2022-11-04T05:53:29.806Z,62.53
2022-11-04T05:55:59.159Z,67.57
2022-11-04T05:58:30.860Z,64.47
2022-11-04T06:01:24.900Z,70.60
2022-11-04T06:03:54.547Z,71.15
2022-11-04T06:06:25.247Z,75.38
2022-11-04T06:09:02.548Z,80.35
2022-11-04T06:11:34.944Z,66.50
2022-11-04T06:14:18.562Z,50.97
2022-11-04T06:16:51.691Z,56.60
2022-11-04T06:19:20.849Z,45.33
2022-11-04T06:21:50.392Z,45.63
2022-11-04T06:24:21.164Z,43.97
2022-11-04T06:26:50.217Z,41.90
2022-11-04T06:29:24.903Z,45.78
2022-11-04T06:31:54.570Z,45.17
2022-11-04T06:34:26.324Z,45.95
2022-11-04T06:37:01.122Z,44.30
2022-11-04T06:39:36.996Z,40.95
2022-11-04T06:44:37.603Z,41.25
2022-11-04T06:47:17.564Z,38.65
2022-11-04T06:49:52.820Z,36.88
2022-11-04T06:52:25.951Z,35.90
2022-11-04T06:54:56.615Z,36.63
2022-11-04T06:57:25.715Z,34.60
2022-11-04T06:59:54.802Z,34.97
2022-11-04T07:02:24.209Z,31.55
2022-11-04T07:04:54.964Z,29.00
2022-11-04T07:07:24.820Z,30.17
2022-11-04T07:10:00.214Z,27.52
2022-11-04T07:12:34.574Z,28.45
2022-11-04T07:15:06.864Z,26.00
2022-11-04T07:17:37.459Z,24.40
2022-11-04T07:20:07.536Z,22.15
2022-11-04T07:22:36.726Z,18.98
2022-11-04T07:25:10.569Z,18.05
2022-11-04T07:27:39.991Z,20.83
2022-11-04T07:30:10.397Z,19.63
2022-11-04T07:32:41.621Z,18.92
2022-11-04T07:35:11.821Z,18.17
2022-11-04T07:37:41.883Z,18.92
2022-11-04T07:40:15.802Z,17.75
2022-11-04T07:42:44.897Z,19.73
2022-11-04T07:45:13.983Z,20.10
2022-11-04T07:47:43.242Z,19.63
2022-11-04T07:50:15.646Z,25.77
2022-11-04T07:52:47.620Z,31.48
2022-11-04T07:55:19.004Z,35.47
2022-11-04T07:57:48.418Z,32.88
2022-11-04T08:00:18.642Z,28.67
2022-11-04T08:02:48.177Z,31.85
2022-11-04T08:05:24.356Z,25.48
2022-11-04T08:07:53.716Z,24.00
2022-11-04T08:10:25.442Z,27.05
2022-11-04T08:12:54.651Z,26.25
2022-11-04T08:15:23.818Z,27.48
2022-11-04T08:17:53.993Z,24.75
2022-11-04T08:20:26.035Z,27.60
2022-11-04T08:22:58.212Z,26.95
2022-11-04T08:25:28.965Z,22.50
2022-11-04T08:28:01.346Z,26.63
2022-11-04T08:30:30.582Z,22.42
2022-11-04T08:33:00.200Z,23.13
2022-11-04T08:35:29.404Z,22.77
2022-11-04T08:38:03.380Z,21.10
2022-11-04T08:40:34.863Z,21.83
2022-11-04T08:43:08.913Z,21.90
2022-11-04T08:45:44.090Z,22.52
2022-11-04T08:48:18.728Z,19.42
2022-11-04T08:51:22.437Z,22.15
2022-11-04T08:53:55.290Z,25.20
2022-11-04T08:56:28.203Z,24.75
2022-11-04T08:59:01.029Z,28.52
2022-11-04T09:01:35.595Z,27.77
2022-11-04T09:04:05.779Z,25.57
2022-11-04T09:06:37.924Z,29.20
2022-11-04T09:09:08.368Z,27.95
2022-11-04T09:11:41.291Z,29.02
2022-11-04T09:14:11.561Z,23.17
2022-11-04T09:16:41.927Z,25.50
2022-11-04T09:19:11.390Z,27.15
2022-11-04T09:21:40.484Z,29.40
2022-11-04T09:24:12.681Z,28.85
2022-11-04T09:26:45.161Z,15.52
2022-11-04T09:29:15.840Z,15.38
2022-11-04T09:31:50.435Z,12.40
2022-11-04T09:34:19.759Z,13.38
2022-11-04T09:36:48.809Z,12.25
2022-11-04T09:39:23.738Z,14.18
2022-11-04T09:42:11.485Z,12.52
2022-11-04T09:45:20.047Z,13.60
2022-11-04T09:47:42.801Z,14.40
2022-11-04T09:50:23.492Z,13.20
2022-11-04T09:53:02.136Z,12.18
2022-11-04T09:55:37.008Z,14.18
2022-11-04T09:58:10.749Z,13.60
2022-11-04T10:00:41.497Z,14.13
2022-11-04T10:03:25.980Z,14.45
2022-11-04T10:06:08.965Z,15.57
2022-11-04T10:09:04.520Z,14.27
2022-11-04T10:11:44.761Z,14.23
2022-11-04T10:14:43.699Z,15.18
2022-11-04T10:17:25.781Z,14.50
2022-11-04T10:20:16.119Z,14.35
2022-11-04T10:22:57.895Z,16.45
2022-11-04T10:25:41.125Z,19.45
2022-11-04T10:28:15.842Z,17.88
2022-11-04T10:30:52.264Z,20.38
2022-11-04T10:33:31.020Z,21.00
2022-11-04T10:36:07.693Z,24.02
2022-11-04T10:38:41.389Z,21.40
2022-11-04T10:41:36.032Z,22.15
2022-11-04T10:44:08.403Z,17.92
2022-11-04T10:46:55.702Z,18.52
2022-11-04T10:50:00.134Z,17.70
2022-11-04T10:52:35.368Z,18.40
2022-11-04T10:55:04.503Z,17.75
2022-11-04T10:57:33.592Z,15.95
2022-11-04T11:00:06.766Z,14.50
2022-11-04T11:02:48.499Z,13.70
2022-11-04T11:05:32.865Z,15.23
2022-11-04T11:08:02.019Z,14.23
2022-11-04T11:10:34.715Z,20.02
2022-11-04T11:13:07.482Z,87.22
2022-11-04T11:15:38.545Z,70.25
2022-11-04T11:18:26.259Z,90.57
2022-11-04T11:21:16.468Z,96.50
2022-11-04T11:23:51.521Z,90.88
2022-11-04T11:26:22.898Z,93.27
2022-11-04T11:28:59.158Z,85.18
2022-11-04T11:31:37.341Z,55.35
2022-11-04T11:34:17.257Z,27.55
2022-11-04T11:36:48.569Z,24.15
2022-11-04T11:39:22.396Z,23.90
2022-11-04T11:41:57.678Z,22.60
2022-11-04T11:44:39.085Z,20.10
2022-11-04T11:47:13.128Z,22.33
2022-11-04T11:49:43.874Z,19.77
2022-11-04T11:52:34.352Z,19.80
2022-11-04T11:55:09.259Z,18.23
2022-11-04T12:00:48.704Z,17.38
2022-11-04T12:09:54.382Z,13.93
2022-11-04T12:12:42.348Z,14.63
2022-11-04T12:15:28.131Z,12.57
2022-11-04T12:20:52.214Z,12.77
2022-11-04T12:23:32.509Z,14.55
2022-11-04T12:26:17.974Z,16.40
2022-11-04T12:29:01.404Z,14.60
2022-11-04T12:31:42.821Z,14.00
2022-11-04T12:34:22.874Z,14.98
2022-11-04T12:37:07.905Z,13.00
2022-11-04T12:39:50.893Z,16.80
2022-11-04T12:42:32.439Z,16.85
2022-11-04T12:45:13.377Z,15.48
2022-11-04T12:47:45.536Z,15.93
2022-11-04T12:50:41.410Z,15.77
2022-11-04T12:53:43.199Z,15.15
2022-11-04T12:56:16.050Z,17.23
2022-11-04T12:58:59.981Z,17.05
2022-11-04T13:01:35.631Z,16.80
2022-11-04T13:04:12.127Z,17.52
2022-11-04T13:06:44.728Z,17.75
2022-11-04T13:09:19.933Z,23.63
2022-11-04T13:11:55.652Z,22.85
2022-11-04T13:14:32.691Z,20.98
2022-11-04T13:17:12.008Z,18.33
2022-11-04T13:19:52.181Z,16.90
2022-11-04T13:22:25.377Z,17.05
2022-11-04T13:25:04.175Z,18.17
2022-11-04T13:27:49.099Z,17.13
2022-11-04T13:30:26.135Z,17.85
2022-11-04T13:33:01.721Z,13.82
2022-11-04T13:35:39.321Z,16.23
2022-11-04T13:38:16.045Z,15.43
2022-11-04T13:40:54.459Z,14.73
2022-11-04T13:43:42.140Z,15.32
2022-11-04T13:46:36.761Z,14.70
2022-11-04T13:49:24.064Z,16.45
2022-11-04T13:52:08.361Z,15.10
2022-11-04T13:54:42.512Z,15.45
2022-11-04T13:57:15.011Z,19.23
2022-11-04T14:00:11.096Z,15.63
2022-11-04T14:02:52.225Z,18.58
2022-11-04T14:05:59.272Z,61.10
2022-11-04T14:08:29.256Z,66.85
2022-11-04T14:11:06.019Z,76.35
2022-11-04T14:13:51.831Z,90.75
2022-11-04T14:16:51.280Z,87.43
2022-11-04T14:20:02.096Z,85.15
2022-11-04T14:22:40.020Z,79.68
2022-11-04T14:25:30.926Z,79.90
2022-11-04T14:28:02.169Z,79.32
2022-11-04T14:30:38.646Z,83.00
2022-11-04T14:33:34.329Z,82.72
2022-11-04T14:36:40.409Z,58.35
2022-11-04T14:39:30.128Z,59.03
2022-11-04T14:42:02.180Z,53.97
2022-11-04T14:44:34.273Z,57.85
2022-11-04T14:47:17.299Z,63.53
2022-11-04T14:49:52.666Z,63.90
2022-11-04T14:52:28.577Z,68.90
2022-11-04T14:55:04.312Z,69.78
2022-11-04T14:57:39.044Z,75.82
2022-11-04T15:00:39.479Z,76.68
2022-11-04T15:03:57.615Z,87.18
2022-11-04T15:06:09.463Z,95.93
2022-11-04T15:08:40.109Z,83.90
2022-11-04T15:11:17.407Z,85.57
2022-11-04T15:13:48.327Z,85.97
2022-11-04T15:16:20.898Z,95.30
2022-11-04T15:18:51.714Z,100.90
2022-11-04T15:21:22.419Z,95.53
2022-11-04T15:23:53.233Z,87.90
2022-11-04T15:26:29.433Z,94.90
2022-11-04T15:29:06.942Z,103.97
2022-11-04T15:31:37.998Z,113.70
2022-11-04T15:34:14.680Z,93.00
2022-11-04T15:36:46.420Z,89.22
2022-11-04T15:39:21.886Z,82.50
2022-11-04T15:42:20.302Z,87.85
2022-11-04T15:44:56.739Z,86.30
2022-11-04T15:47:32.642Z,96.47
2022-11-04T15:52:35.643Z,87.03
2022-11-04T15:55:08.564Z,93.90
2022-11-04T15:57:41.315Z,100.43
2022-11-04T16:00:26.375Z,99.03
2022-11-04T16:02:58.098Z,98.50
2022-11-04T16:05:29.737Z,102.03
2022-11-04T16:08:23.880Z,100.07
2022-11-04T16:11:09.733Z,101.55
2022-11-04T16:13:42.188Z,99.65
2022-11-04T16:16:22.860Z,102.95
2022-11-04T16:18:55.590Z,99.22
2022-11-04T16:21:31.298Z,88.07
2022-11-04T16:24:04.016Z,92.20
2022-11-04T16:26:40.963Z,84.22
2022-11-04T16:29:19.273Z,85.05
2022-11-04T16:32:17.660Z,81.43
2022-11-04T16:34:50.945Z,88.60
2022-11-04T16:37:20.188Z,88.68
2022-11-04T16:39:53.209Z,95.63
2022-11-04T16:42:23.934Z,92.88
2022-11-04T16:45:09.495Z,91.80
2022-11-04T16:47:42.556Z,96.18
2022-11-04T16:50:18.689Z,96.22
2022-11-04T16:52:48.310Z,91.43
2022-11-04T16:55:19.809Z,89.68
2022-11-04T16:57:53.058Z,91.07
2022-11-04T17:00:26.809Z,89.80
2022-11-04T17:02:56.740Z,85.13
2022-11-04T17:05:26.173Z,82.95
2022-11-04T17:07:58.873Z,82.72
2022-11-04T17:10:37.303Z,80.03
2022-11-04T17:13:06.862Z,80.88
2022-11-04T17:15:36.228Z,81.70
2022-11-04T17:18:05.621Z,80.97
2022-11-04T17:20:35.335Z,79.72
2022-11-04T17:23:04.609Z,81.57
2022-11-04T17:25:35.215Z,81.13
2022-11-04T17:28:04.550Z,84.78
2022-11-04T17:30:33.877Z,86.72
2022-11-04T17:33:06.877Z,90.40
2022-11-04T17:35:39.273Z,91.63
2022-11-04T17:38:08.377Z,93.15
2022-11-04T17:40:58.981Z,96.28
2022-11-04T17:44:00.085Z,100.00
2022-11-04T17:46:45.251Z,97.00
2022-11-04T17:49:16.649Z,105.80
2022-11-04T17:51:47.560Z,99.70
2022-11-04T17:54:17.530Z,100.38
2022-11-04T17:56:48.474Z,100.35
2022-11-04T17:59:18.866Z,102.22
2022-11-04T18:01:48.186Z,103.35
2022-11-04T18:04:19.853Z,100.70
2022-11-04T18:06:49.047Z,99.07
2022-11-04T18:09:18.714Z,96.25
2022-11-04T18:12:06.407Z,101.47
2022-11-04T18:14:35.877Z,98.25
2022-11-04T18:17:06.063Z,97.13
2022-11-04T18:19:35.176Z,98.45
2022-11-04T18:22:04.407Z,101.75
2022-11-04T18:24:34.094Z,98.70
2022-11-04T18:27:04.777Z,94.55
2022-11-04T18:29:33.887Z,96.82
2022-11-04T18:32:03.109Z,93.63
2022-11-04T18:34:32.265Z,93.10
2022-11-04T18:37:01.376Z,95.40
2022-11-04T18:39:30.515Z,95.18
2022-11-04T18:41:59.637Z,95.03
2022-11-04T18:44:30.239Z,95.05
2022-11-04T18:46:59.343Z,90.82
2022-11-04T18:49:28.511Z,94.88
2022-11-04T18:51:57.767Z,92.90
2022-11-04T18:54:26.862Z,94.55
2022-11-04T18:56:55.967Z,93.97
2022-11-04T18:59:25.099Z,89.28
2022-11-04T19:01:55.821Z,93.35
2022-11-04T19:04:24.948Z,94.22
2022-11-04T19:06:53.995Z,92.25
2022-11-04T19:12:29.510Z,91.45
2022-11-04T19:14:58.613Z,91.38
2022-11-04T19:17:29.281Z,89.85
2022-11-04T19:19:58.600Z,94.55
2022-11-04T19:22:27.728Z,93.10
2022-11-04T19:24:56.864Z,87.90
2022-11-04T19:27:25.994Z,92.18
2022-11-04T19:29:55.535Z,84.45
2022-11-04T19:32:24.694Z,88.70
2022-11-04T19:34:55.318Z,84.45
2022-11-04T19:37:24.708Z,87.35
2022-11-04T19:39:53.794Z,86.18
2022-11-04T19:42:39.896Z,90.95
2022-11-04T19:45:09.981Z,90.30
2022-11-04T19:47:39.161Z,85.35
2022-11-04T19:50:10.466Z,85.75
2022-11-04T19:52:39.569Z,82.85
2022-11-04T19:55:09.831Z,82.72
2022-11-04T19:57:39.212Z,82.80
2022-11-04T20:00:09.585Z,85.47
2022-11-04T20:02:38.773Z,84.03
2022-11-04T20:05:10.080Z,81.78
2022-11-04T20:07:39.850Z,86.82
2022-11-04T20:10:10.074Z,85.43
2022-11-04T20:12:56.086Z,84.72
2022-11-04T20:15:26.919Z,89.85
2022-11-04T20:17:56.079Z,92.50
2022-11-04T20:20:26.749Z,87.38
2022-11-04T20:22:55.913Z,89.25
2022-11-04T20:25:25.117Z,85.20
2022-11-04T20:27:54.341Z,93.03
2022-11-04T20:30:23.488Z,86.95
2022-11-04T20:32:52.599Z,90.05
2022-11-04T20:35:22.129Z,91.75
2022-11-04T20:37:52.748Z,93.35
2022-11-04T20:40:22.028Z,94.65
2022-11-04T20:42:51.245Z,95.80
2022-11-04T20:45:21.615Z,93.05
2022-11-04T20:47:50.717Z,85.13
2022-11-04T20:50:19.906Z,88.47
2022-11-04T20:52:49.026Z,87.75
2022-11-04T20:55:19.795Z,87.32
2022-11-04T20:57:48.987Z,86.82
2022-11-04T21:00:18.536Z,86.25
2022-11-04T21:02:47.701Z,85.07
2022-11-04T21:05:16.927Z,88.07
2022-11-04T21:07:46.021Z,85.72
2022-11-04T21:10:15.089Z,90.60
2022-11-04T21:12:46.325Z,84.45
2022-11-04T21:15:35.826Z,84.78
2022-11-04T21:18:04.966Z,86.15
2022-11-04T21:20:38.074Z,81.90
2022-11-04T21:23:07.264Z,80.18
2022-11-04T21:25:41.496Z,77.07
2022-11-04T21:28:12.365Z,79.88
2022-11-04T21:30:43.966Z,80.40
2022-11-04T21:33:13.626Z,77.38
2022-11-04T21:35:44.571Z,75.18
2022-11-04T21:38:16.873Z,78.55
2022-11-04T21:40:46.586Z,77.80
2022-11-04T21:43:17.177Z,77.95
2022-11-04T21:45:46.265Z,76.10
2022-11-04T21:48:15.348Z,74.85
2022-11-04T21:50:44.894Z,81.65
2022-11-04T21:53:14.000Z,76.93
2022-11-04T21:55:44.146Z,81.78
2022-11-04T21:58:13.556Z,81.82
2022-11-04T22:00:44.370Z,81.18
2022-11-04T22:03:13.670Z,79.10
2022-11-04T22:05:42.832Z,74.35
2022-11-04T22:08:21.552Z,72.28
2022-11-04T22:10:51.107Z,73.93
2022-11-04T22:13:20.186Z,74.18
2022-11-04T22:16:00.186Z,73.28
2022-11-04T22:18:30.458Z,76.32
2022-11-04T22:21:02.749Z,70.60
2022-11-04T22:23:32.345Z,70.90
2022-11-04T22:26:02.469Z,73.55
2022-11-04T22:28:32.337Z,68.07
2022-11-04T22:31:09.337Z,68.70
2022-11-04T22:33:39.516Z,65.32
2022-11-04T22:36:09.875Z,66.22
2022-11-04T22:38:39.819Z,64.88
2022-11-04T22:41:10.462Z,68.82
2022-11-04T22:43:39.603Z,69.28
2022-11-04T22:46:15.288Z,64.25
2022-11-04T22:48:44.448Z,69.32
2022-11-04T22:51:14.068Z,64.45
2022-11-04T22:53:44.303Z,66.45
2022-11-04T22:56:15.885Z,62.20
2022-11-04T22:58:45.270Z,57.38
2022-11-04T23:01:17.307Z,58.38
2022-11-04T23:03:46.624Z,59.30
2022-11-04T23:06:18.408Z,56.65
2022-11-04T23:08:47.497Z,57.25
2022-11-04T23:11:36.085Z,55.25
2022-11-04T23:14:22.181Z,58.75
2022-11-04T23:17:10.696Z,55.15
2022-11-04T23:19:40.475Z,56.53
2022-11-04T23:22:27.303Z,55.70
2022-11-04T23:25:10.183Z,53.72
2022-11-04T23:27:58.796Z,55.92
2022-11-04T23:30:30.025Z,53.47
2022-11-04T23:33:02.678Z,54.95
2022-11-04T23:35:51.790Z,54.60
2022-11-04T23:38:21.570Z,52.50
2022-11-04T23:41:05.926Z,55.17
2022-11-04T23:43:35.344Z,56.50
2022-11-04T23:46:21.838Z,58.58
2022-11-04T23:49:09.468Z,56.78
2022-11-04T23:51:55.434Z,54.70
2022-11-04T23:54:41.382Z,58.85
2022-11-04T23:57:32.856Z,61.15
